Monroe County Airport
KBMG : now visible

Airfield :











YOU CAN JOIN US ON...

 
LOGIN :

Register | Disclaimer

   EN    FR    IT 

 









Legend :    VFR   Marginal VFR   IFR   Intensive IFR   Very Intensive IFR
Visi :
Ceiling :
>= 8 km
>= 3000ft
5 to 8 km
1000 to 3000 ft
1500m to 5 km
500 to 1000 ft
800 to 1500m
200 to 500 ft
< 800m
< 200 ft
Symbols :   Thunderstorms  Fog  Heavy snow  Heavy precipitations  Wind > 20 kt






- Airport Elevation : 846 ft
- IATA code : BMG


KBMG - Monroe County

CURRENT METAR :
  • 270000Z 01005KT 5SM RA BR SCT007 BKN013 OVC043 08/06 A3024 RMK AO2 T00830061 PNO $

EXPIRED METARs :
  • 262353Z 36006KT 5SM -RA FEW005 BKN008 OVC013 08/06 A3024 RMK AO2 SLP243 6//// T00830056 10106 20083 51016 PNO $
  • 262331Z 35005KT 4SM RA BR FEW006 BKN012 OVC029 08/06 A3023 RMK AO2 T00830061 PNO $
  • 262302Z 33003KT 4SM RA BR FEW008 BKN017 OVC028 08/06 A3025 RMK AO2 T00830061 PNO $
  • 262253Z 00000KT 4SM RA BR FEW008 BKN013 OVC019 08/06 A3024 RMK AO2 SLP241 T00830061 PNO $
  • 262243Z 30003KT 4SM -RA BR SCT009 OVC016 08/06 A3025 RMK AO2 T00830061 PNO $
  • 262228Z 32003KT 2 1/2SM RA BR SCT007 OVC012 08/06 A3024 RMK AO2 T00830061 PNO $
  • 262217Z 31004KT 3SM -RA BKN009 BKN014 OVC029 09/06 A3023 RMK AO2 T00890061 PNO $
  • 262201Z 00000KT 3SM RA SCT009 BKN019 OVC090 09/06 A3022 RMK AO2 T00890061 PNO $
  • 262144Z 35005KT 3SM -RA FEW020 BKN055 OVC090 09/06 A3021 RMK AO2 T00890061 PNO $
  • 262130Z 35004KT 2 1/2SM RA SCT020 OVC055 09/06 A3020 RMK AO2 P0000 T00940061

TAF KBMG
Valid from the 27 at 00:00 until the 28 at 00:00 UTC


262322Z 2700/2724 VRB04KT 4SM -RA BR FEW008 OVC017
FM270200 01005KT 6SM -RA OVC009
FM270400 02005KT P6SM VCSH OVC009
FM270500 VRB04KT P6SM VCSH OVC012
FM271400 VRB04KT P6SM VCSH OVC009
FM271700 VRB04KT P6SM OVC011 AMD LTD TO CLD VIS AND WIND 2701/2713
KZID FIR / North America



MET'MAP, your aeronautical weather chart ! - Copyright ORBIFLY December 2007 - Disclaimer

ORBIFLY MET'MAP TEAM :

Programming & Development : Alexandra Zaïnal
Concept & original design : Baudouin d'Aumeries
Assistance for programming : Marc-Olivier Méhu
Technical & hardware support : Manuel Goepfert

Contact : metmap@orbifly.com




SOURCES & CREDITS :

   NOAA       Earth
Advisory